sensor_id;sensor_type;location;lat;lon;timestamp;P1;durP1;ratioP1;P2;durP2;ratioP2
78674;SDS011;67990;59.826;30.108;2023-04-01T00:02:13;8.15;;;3.00;;
78674;SDS011;67990;59.826;30.108;2023-04-01T00:04:40;8.18;;;3.30;;
78674;SDS011;67990;59.826;30.108;2023-04-01T00:07:08;7.97;;;2.85;;
78674;SDS011;67990;59.826;30.108;2023-04-01T00:09:38;8.18;;;2.88;;
78674;SDS011;67990;59.826;30.108;2023-04-01T00:12:05;7.10;;;2.70;;
78674;SDS011;67990;59.826;30.108;2023-04-01T00:14:33;8.43;;;3.13;;
78674;SDS011;67990;59.826;30.108;2023-04-01T00:17:02;7.45;;;3.00;;
78674;SDS011;67990;59.826;30.108;2023-04-01T00:19:29;7.20;;;2.70;;
78674;SDS011;67990;59.826;30.108;2023-04-01T00:21:58;8.90;;;2.90;;
78674;SDS011;67990;59.826;30.108;2023-04-01T00:24:25;8.53;;;3.30;;
78674;SDS011;67990;59.826;30.108;2023-04-01T00:26:54;8.65;;;3.35;;
78674;SDS011;67990;59.826;30.108;2023-04-01T00:29:21;7.55;;;3.15;;
78674;SDS011;67990;59.826;30.108;2023-04-01T00:31:49;6.88;;;2.50;;
78674;SDS011;67990;59.826;30.108;2023-04-01T00:34:16;6.93;;;2.80;;
78674;SDS011;67990;59.826;30.108;2023-04-01T00:36:43;8.03;;;2.57;;
78674;SDS011;67990;59.826;30.108;2023-04-01T00:39:10;7.97;;;2.63;;
78674;SDS011;67990;59.826;30.108;2023-04-01T00:41:38;6.65;;;2.35;;
78674;SDS011;67990;59.826;30.108;2023-04-01T00:44:15;7.07;;;2.67;;
78674;SDS011;67990;59.826;30.108;2023-04-01T00:46:45;6.85;;;2.58;;
78674;SDS011;67990;59.826;30.108;2023-04-01T00:49:12;6.63;;;2.40;;
78674;SDS011;67990;59.826;30.108;2023-04-01T00:51:41;7.20;;;2.83;;
78674;SDS011;67990;59.826;30.108;2023-04-01T00:54:09;7.07;;;2.70;;
78674;SDS011;67990;59.826;30.108;2023-04-01T00:56:39;5.88;;;2.13;;
78674;SDS011;67990;59.826;30.108;2023-04-01T00:59:11;7.13;;;2.72;;
78674;SDS011;67990;59.826;30.108;2023-04-01T01:01:42;5.83;;;2.40;;
78674;SDS011;67990;59.826;30.108;2023-04-01T01:04:20;7.63;;;2.88;;
78674;SDS011;67990;59.826;30.108;2023-04-01T01:06:50;7.22;;;2.80;;
78674;SDS011;67990;59.826;30.108;2023-04-01T01:09:31;6.80;;;2.33;;
78674;SDS011;67990;59.826;30.108;2023-04-01T01:12:11;6.30;;;2.28;;
78674;SDS011;67990;59.826;30.108;2023-04-01T01:14:45;6.27;;;2.53;;
78674;SDS011;67990;59.826;30.108;2023-04-01T01:17:22;7.32;;;2.42;;
78674;SDS011;67990;59.826;30.108;2023-04-01T01:26:21;6.47;;;2.42;;
78674;SDS011;67990;59.826;30.108;2023-04-01T01:29:09;7.23;;;2.70;;
78674;SDS011;67990;59.826;30.108;2023-04-01T01:31:47;7.05;;;2.33;;
78674;SDS011;67990;59.826;30.108;2023-04-01T01:34:24;7.25;;;2.83;;
78674;SDS011;67990;59.826;30.108;2023-04-01T01:36:58;5.85;;;1.92;;
78674;SDS011;67990;59.826;30.108;2023-04-01T01:39:29;6.75;;;2.50;;
78674;SDS011;67990;59.826;30.108;2023-04-01T01:42:00;5.47;;;2.03;;
78674;SDS011;67990;59.826;30.108;2023-04-01T01:44:30;6.65;;;2.55;;
78674;SDS011;67990;59.826;30.108;2023-04-01T01:47:01;6.88;;;2.67;;
78674;SDS011;67990;59.826;30.108;2023-04-01T01:49:29;6.65;;;2.45;;
78674;SDS011;67990;59.826;30.108;2023-04-01T01:52:00;6.57;;;2.22;;
78674;SDS011;67990;59.826;30.108;2023-04-01T01:54:29;6.63;;;2.07;;
78674;SDS011;67990;59.826;30.108;2023-04-01T01:56:58;6.47;;;2.03;;
78674;SDS011;67990;59.826;30.108;2023-04-01T01:59:31;5.93;;;2.10;;
78674;SDS011;67990;59.826;30.108;2023-04-01T02:02:02;6.93;;;2.42;;
78674;SDS011;67990;59.826;30.108;2023-04-01T02:04:33;7.22;;;2.55;;
78674;SDS011;67990;59.826;30.108;2023-04-01T02:07:05;6.03;;;1.93;;
78674;SDS011;67990;59.826;30.108;2023-04-01T02:09:37;6.95;;;2.40;;
78674;SDS011;67990;59.826;30.108;2023-04-01T02:12:05;7.45;;;2.58;;
78674;SDS011;67990;59.826;30.108;2023-04-01T02:14:39;8.00;;;2.67;;
78674;SDS011;67990;59.826;30.108;2023-04-01T02:17:10;7.90;;;2.38;;
78674;SDS011;67990;59.826;30.108;2023-04-01T02:19:39;7.33;;;2.47;;
78674;SDS011;67990;59.826;30.108;2023-04-01T02:22:13;7.50;;;2.65;;
78674;SDS011;67990;59.826;30.108;2023-04-01T02:24:43;7.22;;;3.08;;
78674;SDS011;67990;59.826;30.108;2023-04-01T02:27:11;7.15;;;2.85;;
78674;SDS011;67990;59.826;30.108;2023-04-01T02:29:39;6.07;;;2.33;;
78674;SDS011;67990;59.826;30.108;2023-04-01T02:32:07;7.07;;;2.70;;
78674;SDS011;67990;59.826;30.108;2023-04-01T02:34:36;6.95;;;2.53;;
78674;SDS011;67990;59.826;30.108;2023-04-01T02:37:03;6.53;;;2.47;;
78674;SDS011;67990;59.826;30.108;2023-04-01T02:39:32;7.10;;;2.40;;
78674;SDS011;67990;59.826;30.108;2023-04-01T02:41:59;7.25;;;2.60;;
78674;SDS011;67990;59.826;30.108;2023-04-01T02:44:28;6.90;;;2.33;;
78674;SDS011;67990;59.826;30.108;2023-04-01T02:46:55;6.60;;;2.20;;
78674;SDS011;67990;59.826;30.108;2023-04-01T02:49:23;6.55;;;2.50;;
78674;SDS011;67990;59.826;30.108;2023-04-01T02:51:50;8.57;;;2.78;;
78674;SDS011;67990;59.826;30.108;2023-04-01T02:54:18;7.85;;;2.70;;
78674;SDS011;67990;59.826;30.108;2023-04-01T02:56:46;8.33;;;3.10;;
78674;SDS011;67990;59.826;30.108;2023-04-01T02:59:13;7.07;;;2.47;;
78674;SDS011;67990;59.826;30.108;2023-04-01T03:01:40;6.90;;;2.63;;
78674;SDS011;67990;59.826;30.108;2023-04-01T03:04:08;5.95;;;2.25;;
78674;SDS011;67990;59.826;30.108;2023-04-01T03:06:35;8.18;;;2.70;;
78674;SDS011;67990;59.826;30.108;2023-04-01T03:09:02;6.50;;;2.40;;
78674;SDS011;67990;59.826;30.108;2023-04-01T03:11:29;8.18;;;2.85;;
78674;SDS011;67990;59.826;30.108;2023-04-01T03:13:59;7.28;;;2.45;;
78674;SDS011;67990;59.826;30.108;2023-04-01T03:16:26;6.03;;;2.38;;
78674;SDS011;67990;59.826;30.108;2023-04-01T03:18:53;7.43;;;3.20;;
78674;SDS011;67990;59.826;30.108;2023-04-01T03:21:22;6.60;;;2.23;;
78674;SDS011;67990;59.826;30.108;2023-04-01T03:23:51;5.82;;;2.42;;
78674;SDS011;67990;59.826;30.108;2023-04-01T03:26:18;6.65;;;2.58;;
78674;SDS011;67990;59.826;30.108;2023-04-01T03:28:47;6.60;;;2.60;;
78674;SDS011;67990;59.826;30.108;2023-04-01T03:31:15;5.88;;;2.20;;
78674;SDS011;67990;59.826;30.108;2023-04-01T03:33:48;6.60;;;2.60;;
78674;SDS011;67990;59.826;30.108;2023-04-01T03:36:15;7.95;;;2.72;;
78674;SDS011;67990;59.826;30.108;2023-04-01T03:38:43;7.25;;;2.78;;
78674;SDS011;67990;59.826;30.108;2023-04-01T03:41:16;7.13;;;2.70;;
78674;SDS011;67990;59.826;30.108;2023-04-01T03:43:44;6.95;;;2.78;;
78674;SDS011;67990;59.826;30.108;2023-04-01T03:46:17;6.73;;;2.47;;
78674;SDS011;67990;59.826;30.108;2023-04-01T03:48:45;7.70;;;2.78;;
78674;SDS011;67990;59.826;30.108;2023-04-01T03:51:12;7.97;;;3.13;;
78674;SDS011;67990;59.826;30.108;2023-04-01T03:53:40;5.95;;;2.13;;
78674;SDS011;67990;59.826;30.108;2023-04-01T03:56:08;6.60;;;2.45;;
78674;SDS011;67990;59.826;30.108;2023-04-01T03:58:35;6.90;;;2.60;;
78674;SDS011;67990;59.826;30.108;2023-04-01T04:01:13;7.88;;;2.13;;
78674;SDS011;67990;59.826;30.108;2023-04-01T04:03:47;5.38;;;2.05;;
78674;SDS011;67990;59.826;30.108;2023-04-01T04:06:15;7.00;;;2.28;;
78674;SDS011;67990;59.826;30.108;2023-04-01T04:08:43;6.40;;;2.20;;
78674;SDS011;67990;59.826;30.108;2023-04-01T04:11:11;6.77;;;2.33;;
78674;SDS011;67990;59.826;30.108;2023-04-01T04:13:41;7.10;;;2.42;;
78674;SDS011;67990;59.826;30.108;2023-04-01T04:16:09;8.32;;;2.50;;
78674;SDS011;67990;59.826;30.108;2023-04-01T04:18:42;6.15;;;2.40;;
78674;SDS011;67990;59.826;30.108;2023-04-01T04:21:11;7.22;;;2.28;;
78674;SDS011;67990;59.826;30.108;2023-04-01T04:23:40;7.50;;;2.50;;
78674;SDS011;67990;59.826;30.108;2023-04-01T04:26:08;5.68;;;1.83;;
78674;SDS011;67990;59.826;30.108;2023-04-01T04:28:38;6.25;;;2.20;;
78674;SDS011;67990;59.826;30.108;2023-04-01T04:31:05;5.25;;;1.92;;
78674;SDS011;67990;59.826;30.108;2023-04-01T04:33:34;5.57;;;1.92;;
78674;SDS011;67990;59.826;30.108;2023-04-01T04:36:04;6.83;;;2.33;;
78674;SDS011;67990;59.826;30.108;2023-04-01T04:38:31;5.60;;;1.83;;
78674;SDS011;67990;59.826;30.108;2023-04-01T04:40:59;7.50;;;2.30;;
78674;SDS011;67990;59.826;30.108;2023-04-01T04:43:26;6.35;;;2.05;;
78674;SDS011;67990;59.826;30.108;2023-04-01T04:45:55;4.88;;;1.77;;
78674;SDS011;67990;59.826;30.108;2023-04-01T04:48:22;6.67;;;1.83;;
78674;SDS011;67990;59.826;30.108;2023-04-01T04:50:49;6.93;;;2.08;;
78674;SDS011;67990;59.826;30.108;2023-04-01T04:53:21;6.00;;;2.28;;
78674;SDS011;67990;59.826;30.108;2023-04-01T04:55:49;5.85;;;1.60;;
78674;SDS011;67990;59.826;30.108;2023-04-01T04:58:29;7.05;;;2.00;;
78674;SDS011;67990;59.826;30.108;2023-04-01T05:00:56;5.20;;;1.90;;
78674;SDS011;67990;59.826;30.108;2023-04-01T05:03:28;7.10;;;2.10;;
78674;SDS011;67990;59.826;30.108;2023-04-01T05:05:55;5.75;;;1.77;;
78674;SDS011;67990;59.826;30.108;2023-04-01T05:08:24;5.03;;;1.73;;
78674;SDS011;67990;59.826;30.108;2023-04-01T05:10:51;5.47;;;1.80;;
78674;SDS011;67990;59.826;30.108;2023-04-01T05:13:18;5.27;;;1.47;;
78674;SDS011;67990;59.826;30.108;2023-04-01T05:15:46;5.20;;;1.88;;
78674;SDS011;67990;59.826;30.108;2023-04-01T05:18:15;5.55;;;2.00;;
78674;SDS011;67990;59.826;30.108;2023-04-01T05:20:46;5.63;;;1.75;;
78674;SDS011;67990;59.826;30.108;2023-04-01T05:23:14;5.15;;;1.75;;
78674;SDS011;67990;59.826;30.108;2023-04-01T05:25:44;5.20;;;1.80;;
78674;SDS011;67990;59.826;30.108;2023-04-01T05:28:11;5.65;;;2.05;;
78674;SDS011;67990;59.826;30.108;2023-04-01T05:30:52;6.50;;;1.90;;
78674;SDS011;67990;59.826;30.108;2023-04-01T05:33:29;6.32;;;1.70;;
78674;SDS011;67990;59.826;30.108;2023-04-01T05:35:58;5.57;;;1.80;;
78674;SDS011;67990;59.826;30.108;2023-04-01T05:38:32;4.43;;;1.63;;
78674;SDS011;67990;59.826;30.108;2023-04-01T05:41:01;5.55;;;1.73;;
78674;SDS011;67990;59.826;30.108;2023-04-01T05:43:32;5.95;;;1.95;;
78674;SDS011;67990;59.826;30.108;2023-04-01T05:46:20;5.10;;;1.52;;
78674;SDS011;67990;59.826;30.108;2023-04-01T05:48:54;6.72;;;1.92;;
78674;SDS011;67990;59.826;30.108;2023-04-01T05:51:23;4.93;;;1.80;;
78674;SDS011;67990;59.826;30.108;2023-04-01T05:53:50;5.20;;;1.63;;
78674;SDS011;67990;59.826;30.108;2023-04-01T05:56:21;6.10;;;2.13;;
78674;SDS011;67990;59.826;30.108;2023-04-01T05:58:52;4.45;;;1.50;;
78674;SDS011;67990;59.826;30.108;2023-04-01T06:01:22;6.85;;;1.70;;
78674;SDS011;67990;59.826;30.108;2023-04-01T06:03:50;5.07;;;1.60;;
78674;SDS011;67990;59.826;30.108;2023-04-01T06:06:20;4.45;;;1.30;;
78674;SDS011;67990;59.826;30.108;2023-04-01T06:08:53;7.07;;;2.15;;
78674;SDS011;67990;59.826;30.108;2023-04-01T06:11:27;5.47;;;2.20;;
78674;SDS011;67990;59.826;30.108;2023-04-01T06:14:08;5.28;;;1.90;;
78674;SDS011;67990;59.826;30.108;2023-04-01T06:16:55;5.17;;;1.50;;
78674;SDS011;67990;59.826;30.108;2023-04-01T06:19:34;4.80;;;1.50;;
78674;SDS011;67990;59.826;30.108;2023-04-01T06:22:10;5.38;;;2.10;;
78674;SDS011;67990;59.826;30.108;2023-04-01T06:27:59;5.65;;;2.05;;
78674;SDS011;67990;59.826;30.108;2023-04-01T06:30:38;5.57;;;2.03;;
78674;SDS011;67990;59.826;30.108;2023-04-01T06:33:20;5.65;;;2.50;;
78674;SDS011;67990;59.826;30.108;2023-04-01T06:36:02;5.57;;;2.10;;
78674;SDS011;67990;59.826;30.108;2023-04-01T06:38:50;6.00;;;2.17;;
78674;SDS011;67990;59.826;30.108;2023-04-01T06:44:33;5.57;;;2.00;;
78674;SDS011;67990;59.826;30.108;2023-04-01T06:47:53;6.38;;;2.30;;
78674;SDS011;67990;59.826;30.108;2023-04-01T06:50:54;6.47;;;2.53;;
78674;SDS011;67990;59.826;30.108;2023-04-01T06:53:54;6.05;;;2.30;;
78674;SDS011;67990;59.826;30.108;2023-04-01T06:57:12;5.10;;;2.10;;
78674;SDS011;67990;59.826;30.108;2023-04-01T06:59:51;5.30;;;2.17;;
78674;SDS011;67990;59.826;30.108;2023-04-01T07:02:25;5.68;;;1.95;;
78674;SDS011;67990;59.826;30.108;2023-04-01T07:05:00;5.50;;;2.00;;
78674;SDS011;67990;59.826;30.108;2023-04-01T07:07:31;6.30;;;2.30;;
78674;SDS011;67990;59.826;30.108;2023-04-01T07:10:06;5.07;;;2.03;;
78674;SDS011;67990;59.826;30.108;2023-04-01T07:13:13;5.97;;;2.00;;
78674;SDS011;67990;59.826;30.108;2023-04-01T07:15:48;5.32;;;2.25;;
78674;SDS011;67990;59.826;30.108;2023-04-01T07:18:25;5.40;;;2.08;;
78674;SDS011;67990;59.826;30.108;2023-04-01T07:21:00;5.55;;;2.22;;
78674;SDS011;67990;59.826;30.108;2023-04-01T07:23:29;6.80;;;2.30;;
78674;SDS011;67990;59.826;30.108;2023-04-01T07:26:25;7.60;;;3.20;;
78674;SDS011;67990;59.826;30.108;2023-04-01T07:29:05;7.55;;;2.90;;
78674;SDS011;67990;59.826;30.108;2023-04-01T07:31:56;6.93;;;3.00;;
78674;SDS011;67990;59.826;30.108;2023-04-01T07:34:39;6.40;;;2.30;;
78674;SDS011;67990;59.826;30.108;2023-04-01T07:37:17;7.18;;;2.47;;
78674;SDS011;67990;59.826;30.108;2023-04-01T07:39:51;6.90;;;2.97;;
78674;SDS011;67990;59.826;30.108;2023-04-01T07:42:34;6.20;;;2.08;;
78674;SDS011;67990;59.826;30.108;2023-04-01T07:45:13;6.82;;;2.58;;
78674;SDS011;67990;59.826;30.108;2023-04-01T07:47:52;5.97;;;2.28;;
78674;SDS011;67990;59.826;30.108;2023-04-01T07:50:31;7.00;;;2.70;;
78674;SDS011;67990;59.826;30.108;2023-04-01T07:53:06;6.77;;;2.40;;
78674;SDS011;67990;59.826;30.108;2023-04-01T07:55:45;7.28;;;2.83;;
78674;SDS011;67990;59.826;30.108;2023-04-01T07:58:22;5.97;;;2.70;;
78674;SDS011;67990;59.826;30.108;2023-04-01T08:01:02;7.30;;;2.60;;
78674;SDS011;67990;59.826;30.108;2023-04-01T08:03:48;5.38;;;2.40;;
78674;SDS011;67990;59.826;30.108;2023-04-01T08:06:28;5.60;;;2.23;;
78674;SDS011;67990;59.826;30.108;2023-04-01T08:09:01;5.22;;;1.95;;
78674;SDS011;67990;59.826;30.108;2023-04-01T08:11:57;6.72;;;2.53;;
78674;SDS011;67990;59.826;30.108;2023-04-01T08:14:53;5.10;;;1.95;;
78674;SDS011;67990;59.826;30.108;2023-04-01T08:17:52;6.35;;;2.40;;
78674;SDS011;67990;59.826;30.108;2023-04-01T08:20:32;6.57;;;2.23;;
78674;SDS011;67990;59.826;30.108;2023-04-01T08:23:05;4.97;;;1.70;;
78674;SDS011;67990;59.826;30.108;2023-04-01T08:25:41;5.85;;;2.13;;
78674;SDS011;67990;59.826;30.108;2023-04-01T08:28:16;6.38;;;2.03;;
78674;SDS011;67990;59.826;30.108;2023-04-01T08:30:47;5.15;;;1.92;;
78674;SDS011;67990;59.826;30.108;2023-04-01T08:33:19;6.10;;;2.07;;
78674;SDS011;67990;59.826;30.108;2023-04-01T08:35:57;4.50;;;1.80;;
78674;SDS011;67990;59.826;30.108;2023-04-01T08:38:31;4.72;;;1.75;;
78674;SDS011;67990;59.826;30.108;2023-04-01T08:41:10;4.50;;;1.80;;
78674;SDS011;67990;59.826;30.108;2023-04-01T08:44:34;5.32;;;2.30;;
78674;SDS011;67990;59.826;30.108;2023-04-01T08:47:20;7.60;;;2.77;;
78674;SDS011;67990;59.826;30.108;2023-04-01T08:50:36;7.63;;;2.40;;
78674;SDS011;67990;59.826;30.108;2023-04-01T08:53:47;5.18;;;2.03;;
78674;SDS011;67990;59.826;30.108;2023-04-01T08:56:29;5.53;;;2.15;;
78674;SDS011;67990;59.826;30.108;2023-04-01T09:02:41;4.93;;;1.93;;
78674;SDS011;67990;59.826;30.108;2023-04-01T09:05:37;8.50;;;3.28;;
78674;SDS011;67990;59.826;30.108;2023-04-01T09:08:33;6.95;;;2.92;;
78674;SDS011;67990;59.826;30.108;2023-04-01T09:11:17;9.77;;;3.47;;
78674;SDS011;67990;59.826;30.108;2023-04-01T09:14:11;7.68;;;3.78;;
78674;SDS011;67990;59.826;30.108;2023-04-01T09:17:09;9.00;;;3.63;;
78674;SDS011;67990;59.826;30.108;2023-04-01T09:20:09;7.40;;;2.72;;
78674;SDS011;67990;59.826;30.108;2023-04-01T09:23:15;5.00;;;1.52;;
78674;SDS011;67990;59.826;30.108;2023-04-01T09:26:03;5.45;;;1.70;;
78674;SDS011;67990;59.826;30.108;2023-04-01T09:28:47;5.22;;;1.70;;
78674;SDS011;67990;59.826;30.108;2023-04-01T09:31:39;4.80;;;1.90;;
78674;SDS011;67990;59.826;30.108;2023-04-01T09:34:40;5.10;;;1.63;;
78674;SDS011;67990;59.826;30.108;2023-04-01T09:37:33;6.25;;;2.83;;
78674;SDS011;67990;59.826;30.108;2023-04-01T09:40:14;5.28;;;1.70;;
78674;SDS011;67990;59.826;30.108;2023-04-01T09:42:58;5.53;;;1.75;;
78674;SDS011;67990;59.826;30.108;2023-04-01T09:45:51;4.27;;;1.43;;
78674;SDS011;67990;59.826;30.108;2023-04-01T09:48:59;5.10;;;1.77;;
78674;SDS011;67990;59.826;30.108;2023-04-01T09:51:47;4.32;;;1.70;;
78674;SDS011;67990;59.826;30.108;2023-04-01T09:54:31;4.55;;;1.75;;
78674;SDS011;67990;59.826;30.108;2023-04-01T09:57:16;4.57;;;1.85;;
78674;SDS011;67990;59.826;30.108;2023-04-01T10:03:39;5.53;;;2.08;;
78674;SDS011;67990;59.826;30.108;2023-04-01T10:09:45;4.47;;;1.60;;
78674;SDS011;67990;59.826;30.108;2023-04-01T10:12:41;5.97;;;2.45;;
78674;SDS011;67990;59.826;30.108;2023-04-01T10:15:32;4.50;;;1.93;;
78674;SDS011;67990;59.826;30.108;2023-04-01T10:21:25;9.35;;;3.80;;
78674;SDS011;67990;59.826;30.108;2023-04-01T10:24:42;9.68;;;3.60;;
78674;SDS011;67990;59.826;30.108;2023-04-01T10:27:34;9.65;;;4.28;;
78674;SDS011;67990;59.826;30.108;2023-04-01T10:30:38;9.17;;;3.73;;
78674;SDS011;67990;59.826;30.108;2023-04-01T10:36:55;6.18;;;3.20;;
78674;SDS011;67990;59.826;30.108;2023-04-01T10:43:11;8.25;;;3.58;;
78674;SDS011;67990;59.826;30.108;2023-04-01T10:46:15;6.50;;;2.73;;
78674;SDS011;67990;59.826;30.108;2023-04-01T10:52:22;6.78;;;2.85;;
78674;SDS011;67990;59.826;30.108;2023-04-01T10:55:34;7.60;;;2.92;;
78674;SDS011;67990;59.826;30.108;2023-04-01T10:58:42;9.25;;;3.65;;
78674;SDS011;67990;59.826;30.108;2023-04-01T11:08:40;8.57;;;4.38;;
78674;SDS011;67990;59.826;30.108;2023-04-01T11:14:34;7.25;;;3.17;;
78674;SDS011;67990;59.826;30.108;2023-04-01T11:23:55;6.78;;;3.25;;
78674;SDS011;67990;59.826;30.108;2023-04-01T11:26:59;9.70;;;3.50;;
78674;SDS011;67990;59.826;30.108;2023-04-01T11:30:00;7.68;;;2.80;;
78674;SDS011;67990;59.826;30.108;2023-04-01T11:32:54;8.27;;;2.77;;
78674;SDS011;67990;59.826;30.108;2023-04-01T11:38:42;7.28;;;3.30;;
78674;SDS011;67990;59.826;30.108;2023-04-01T11:41:52;8.35;;;3.17;;
78674;SDS011;67990;59.826;30.108;2023-04-01T11:45:10;7.40;;;3.58;;
78674;SDS011;67990;59.826;30.108;2023-04-01T11:47:53;7.63;;;3.13;;
78674;SDS011;67990;59.826;30.108;2023-04-01T11:50:32;7.63;;;3.35;;
78674;SDS011;67990;59.826;30.108;2023-04-01T11:53:13;7.03;;;3.60;;
78674;SDS011;67990;59.826;30.108;2023-04-01T11:55:55;8.23;;;2.75;;
78674;SDS011;67990;59.826;30.108;2023-04-01T11:58:38;6.47;;;3.10;;
78674;SDS011;67990;59.826;30.108;2023-04-01T12:01:26;6.93;;;3.20;;
78674;SDS011;67990;59.826;30.108;2023-04-01T12:04:05;6.57;;;3.15;;
78674;SDS011;67990;59.826;30.108;2023-04-01T12:06:58;7.30;;;3.35;;
78674;SDS011;67990;59.826;30.108;2023-04-01T12:09:35;7.40;;;2.70;;
78674;SDS011;67990;59.826;30.108;2023-04-01T12:12:16;6.60;;;2.75;;
78674;SDS011;67990;59.826;30.108;2023-04-01T12:14:54;6.43;;;2.73;;
78674;SDS011;67990;59.826;30.108;2023-04-01T12:17:35;8.35;;;3.00;;
78674;SDS011;67990;59.826;30.108;2023-04-01T12:20:17;9.52;;;3.42;;
78674;SDS011;67990;59.826;30.108;2023-04-01T12:22:53;6.57;;;3.05;;
78674;SDS011;67990;59.826;30.108;2023-04-01T12:25:36;6.82;;;2.63;;
78674;SDS011;67990;59.826;30.108;2023-04-01T12:28:20;7.47;;;3.00;;
78674;SDS011;67990;59.826;30.108;2023-04-01T12:31:01;6.80;;;2.67;;
78674;SDS011;67990;59.826;30.108;2023-04-01T12:33:46;7.30;;;3.30;;
78674;SDS011;67990;59.826;30.108;2023-04-01T12:36:31;7.60;;;2.55;;
78674;SDS011;67990;59.826;30.108;2023-04-01T12:39:12;8.05;;;2.58;;
78674;SDS011;67990;59.826;30.108;2023-04-01T12:41:59;7.67;;;2.90;;
78674;SDS011;67990;59.826;30.108;2023-04-01T12:44:52;7.90;;;2.70;;
78674;SDS011;67990;59.826;30.108;2023-04-01T12:47:50;9.57;;;3.03;;
78674;SDS011;67990;59.826;30.108;2023-04-01T12:53:38;7.80;;;3.10;;
78674;SDS011;67990;59.826;30.108;2023-04-01T12:56:28;6.93;;;2.67;;
78674;SDS011;67990;59.826;30.108;2023-04-01T12:59:17;7.75;;;3.10;;
78674;SDS011;67990;59.826;30.108;2023-04-01T13:02:02;8.40;;;3.47;;
78674;SDS011;67990;59.826;30.108;2023-04-01T13:07:42;7.57;;;3.08;;
78674;SDS011;67990;59.826;30.108;2023-04-01T13:10:27;8.50;;;3.27;;
78674;SDS011;67990;59.826;30.108;2023-04-01T13:13:11;8.98;;;3.35;;
78674;SDS011;67990;59.826;30.108;2023-04-01T13:15:54;8.98;;;3.88;;
78674;SDS011;67990;59.826;30.108;2023-04-01T13:18:30;8.25;;;3.53;;
78674;SDS011;67990;59.826;30.108;2023-04-01T13:21:08;8.00;;;3.35;;
78674;SDS011;67990;59.826;30.108;2023-04-01T13:23:48;11.57;;;3.90;;
78674;SDS011;67990;59.826;30.108;2023-04-01T13:26:23;7.75;;;3.70;;
78674;SDS011;67990;59.826;30.108;2023-04-01T13:28:58;9.68;;;3.72;;
78674;SDS011;67990;59.826;30.108;2023-04-01T13:31:44;7.97;;;3.38;;
78674;SDS011;67990;59.826;30.108;2023-04-01T13:34:27;8.20;;;3.13;;
78674;SDS011;67990;59.826;30.108;2023-04-01T13:37:13;7.17;;;3.07;;
78674;SDS011;67990;59.826;30.108;2023-04-01T13:39:52;9.75;;;3.58;;
78674;SDS011;67990;59.826;30.108;2023-04-01T13:42:29;7.45;;;3.40;;
78674;SDS011;67990;59.826;30.108;2023-04-01T13:45:01;8.50;;;3.28;;
78674;SDS011;67990;59.826;30.108;2023-04-01T13:47:51;9.88;;;2.95;;
78674;SDS011;67990;59.826;30.108;2023-04-01T13:50:35;7.33;;;3.00;;
78674;SDS011;67990;59.826;30.108;2023-04-01T13:56:14;7.18;;;2.72;;
78674;SDS011;67990;59.826;30.108;2023-04-01T13:58:57;7.05;;;3.08;;
78674;SDS011;67990;59.826;30.108;2023-04-01T14:01:39;5.65;;;2.40;;
78674;SDS011;67990;59.826;30.108;2023-04-01T14:07:18;5.95;;;2.30;;
78674;SDS011;67990;59.826;30.108;2023-04-01T14:10:12;6.70;;;2.78;;
78674;SDS011;67990;59.826;30.108;2023-04-01T14:12:47;6.60;;;2.40;;
78674;SDS011;67990;59.826;30.108;2023-04-01T14:15:40;6.55;;;2.28;;
78674;SDS011;67990;59.826;30.108;2023-04-01T14:18:19;5.63;;;2.50;;
78674;SDS011;67990;59.826;30.108;2023-04-01T14:21:03;6.38;;;2.30;;
78674;SDS011;67990;59.826;30.108;2023-04-01T14:23:43;7.35;;;2.67;;
78674;SDS011;67990;59.826;30.108;2023-04-01T14:26:24;6.80;;;2.30;;
78674;SDS011;67990;59.826;30.108;2023-04-01T14:29:09;7.05;;;2.10;;
78674;SDS011;67990;59.826;30.108;2023-04-01T14:31:55;5.63;;;2.10;;
78674;SDS011;67990;59.826;30.108;2023-04-01T14:34:36;5.63;;;1.65;;
78674;SDS011;67990;59.826;30.108;2023-04-01T14:37:20;5.00;;;1.58;;
78674;SDS011;67990;59.826;30.108;2023-04-01T14:43:21;3.67;;;1.10;;
78674;SDS011;67990;59.826;30.108;2023-04-01T14:49:23;4.40;;;1.35;;
78674;SDS011;67990;59.826;30.108;2023-04-01T14:52:03;4.80;;;1.52;;
78674;SDS011;67990;59.826;30.108;2023-04-01T14:54:33;5.05;;;1.10;;
78674;SDS011;67990;59.826;30.108;2023-04-01T14:57:09;4.82;;;1.30;;
78674;SDS011;67990;59.826;30.108;2023-04-01T14:59:39;4.67;;;1.30;;
78674;SDS011;67990;59.826;30.108;2023-04-01T15:02:14;3.50;;;1.08;;
78674;SDS011;67990;59.826;30.108;2023-04-01T15:04:58;5.25;;;1.70;;
78674;SDS011;67990;59.826;30.108;2023-04-01T15:07:46;3.90;;;1.08;;
78674;SDS011;67990;59.826;30.108;2023-04-01T15:10:32;4.13;;;1.02;;
78674;SDS011;67990;59.826;30.108;2023-04-01T15:13:19;3.00;;;0.50;;
78674;SDS011;67990;59.826;30.108;2023-04-01T15:16:00;3.65;;;0.80;;
78674;SDS011;67990;59.826;30.108;2023-04-01T15:18:39;3.50;;;0.80;;
78674;SDS011;67990;59.826;30.108;2023-04-01T15:21:18;3.50;;;0.70;;
78674;SDS011;67990;59.826;30.108;2023-04-01T15:23:57;4.85;;;1.00;;
78674;SDS011;67990;59.826;30.108;2023-04-01T15:26:38;4.10;;;0.90;;
78674;SDS011;67990;59.826;30.108;2023-04-01T15:29:25;3.40;;;0.80;;
78674;SDS011;67990;59.826;30.108;2023-04-01T15:32:15;3.70;;;1.00;;
78674;SDS011;67990;59.826;30.108;2023-04-01T15:34:49;4.30;;;0.90;;
78674;SDS011;67990;59.826;30.108;2023-04-01T15:37:28;4.70;;;1.00;;
78674;SDS011;67990;59.826;30.108;2023-04-01T15:40:11;4.23;;;0.90;;
78674;SDS011;67990;59.826;30.108;2023-04-01T15:42:50;3.90;;;0.77;;
78674;SDS011;67990;59.826;30.108;2023-04-01T15:45:35;3.70;;;1.00;;
78674;SDS011;67990;59.826;30.108;2023-04-01T15:48:14;4.28;;;0.88;;
78674;SDS011;67990;59.826;30.108;2023-04-01T15:50:54;3.83;;;0.70;;
78674;SDS011;67990;59.826;30.108;2023-04-01T15:53:40;4.80;;;0.70;;
78674;SDS011;67990;59.826;30.108;2023-04-01T15:56:19;3.58;;;0.60;;
78674;SDS011;67990;59.826;30.108;2023-04-01T15:58:58;3.83;;;0.70;;
78674;SDS011;67990;59.826;30.108;2023-04-01T16:01:35;2.72;;;0.50;;
78674;SDS011;67990;59.826;30.108;2023-04-01T16:04:19;3.20;;;0.50;;
78674;SDS011;67990;59.826;30.108;2023-04-01T16:07:10;4.00;;;0.50;;
78674;SDS011;67990;59.826;30.108;2023-04-01T16:09:48;3.35;;;0.50;;
78674;SDS011;67990;59.826;30.108;2023-04-01T16:12:31;2.60;;;0.45;;
78674;SDS011;67990;59.826;30.108;2023-04-01T16:15:18;2.75;;;0.52;;
78674;SDS011;67990;59.826;30.108;2023-04-01T16:17:58;3.42;;;0.43;;
78674;SDS011;67990;59.826;30.108;2023-04-01T16:20:42;2.97;;;0.30;;
78674;SDS011;67990;59.826;30.108;2023-04-01T16:23:14;3.05;;;0.55;;
78674;SDS011;67990;59.826;30.108;2023-04-01T16:25:49;2.78;;;0.60;;
78674;SDS011;67990;59.826;30.108;2023-04-01T16:28:22;2.95;;;0.50;;
78674;SDS011;67990;59.826;30.108;2023-04-01T16:30:56;2.63;;;0.40;;
78674;SDS011;67990;59.826;30.108;2023-04-01T16:33:32;4.63;;;0.50;;
78674;SDS011;67990;59.826;30.108;2023-04-01T16:36:09;2.28;;;0.30;;
78674;SDS011;67990;59.826;30.108;2023-04-01T16:38:43;4.20;;;0.65;;
78674;SDS011;67990;59.826;30.108;2023-04-01T16:41:23;3.10;;;0.60;;
78674;SDS011;67990;59.826;30.108;2023-04-01T16:43:56;3.65;;;0.70;;
78674;SDS011;67990;59.826;30.108;2023-04-01T16:46:37;2.80;;;0.40;;
78674;SDS011;67990;59.826;30.108;2023-04-01T16:49:22;3.72;;;0.50;;
78674;SDS011;67990;59.826;30.108;2023-04-01T16:51:57;2.90;;;0.40;;
78674;SDS011;67990;59.826;30.108;2023-04-01T16:54:43;4.63;;;0.70;;
78674;SDS011;67990;59.826;30.108;2023-04-01T16:57:19;4.63;;;0.80;;